15°C Temp
15°C Dewpoint
% Humidity
Temperature
8 KM/H
5 MPH
4 KTS
30°
North North
East

Wind Speed
Light Rain
Showers
Pressure 1020.92 (hPa) - 30.15 (in)
Visibility 6.2 (mi) - 10.0 (km)

Current Conditions
LIME
Location 30(km)
Metar :LIME 210750Z 03004KT 360V110 9999 RA SCT030 BKN060 15/15 Q1021 NOSIG
Mon 21st October 08:50 am

Airport
  Metar Aviation API Data Provided by https://www.checkwx.com/ PHP scripts by weather34.com ©2019